Hillman, Michigan
Current Conditions -  °F | °C
As of 12:54 AM on Thursday 29 Jan 2015 (Local Time) from KAPN Reporting Station
Overcast Overcast  
Wind Chill: 16°   Ceiling: 9000
Heat Index: 26°   Visibility: 10mi
Dew Point: 13°   Wind: 10mph
Humidity: 58%   Direction: 160°SSE
Pressure: 30.02"   Gusts: NA
Location:  45.06°N, 83.9°W
Report Text: KAPN 290554Z AUTO 16009KT 10SM FEW060 BKN090 OVC100 M03/M11 A3002 RMK AO2 SLP176 T10331106 11033 21039 58024
Loading
Personal Weather Stations






























Interactive Weather Map New forecast layout! Learn more

10-Day Weather Forecast

Advertisements
Track Severe Weather on mobile